Time;durP1;ratioP1;P1;durP2;ratioP2;P2;SDS_P1;SDS_P2;PMS_P1;PMS_P2;Temp;Humidity;BMP_temperature;BMP_pressure;BME280_temperature;BME280_humidity;BME280_pressure;Samples;Min_cycle;Max_cycle;Signal;HPM_P1;HPM_P2
2022/11/13 00:04:28;;;;;;;;;;;;;;;;;;10393881;28;19921;-79
2022/11/13 00:09:47;;;;;;;;;;;;;;;;;;10391695;28;19936;-80
2022/11/13 00:15:05;;;;;;;;;;;;;;;;;;10390360;28;20320;-79
2022/11/13 00:20:24;;;;;;;;;;;;;;;;;;10378780;28;19921;-80
2022/11/13 00:25:44;;;;;;;;;;;;;;;;;;10396110;28;19921;-81
2022/11/13 00:31:03;;;;;;;;;;;;;;;;;;10387337;28;19929;-80
2022/11/13 00:36:22;;;;;;;;;;;;;;;;;;10390541;28;19921;-79
2022/11/13 00:41:41;;;;;;;;;;;;;;;;;;10401112;28;19921;-81
2022/11/13 00:47:00;;;;;;;;;;;;;;;;;;10384618;28;19929;-82
2022/11/13 00:52:19;;;;;;;;;;;;;;;;;;10399769;28;19922;-80
2022/11/13 00:57:37;;;;;;;;;;;;;;;;;;10391091;28;19921;-80
2022/11/13 01:02:57;;;;;;;;;;;;;;;;;;10401070;28;20012;-79
2022/11/13 01:08:16;;;;;;;;;;;;;;;;;;10391756;28;20460;-80
2022/11/13 01:13:34;;;;;;;;;;;;;;;;;;10385724;28;20029;-82
2022/11/13 01:18:54;;;;;;;;;;;;;;;;;;10400021;28;19921;-80
2022/11/13 01:24:13;;;;;;;;;;;;;;;;;;10376780;28;20307;-81
2022/11/13 01:29:32;;;;;;;;;;;;;;;;;;10386006;28;19929;-81
2022/11/13 01:34:50;;;;;;;;;;;;;;;;;;10414173;28;19909;-79
2022/11/13 01:40:10;;;;;;;;;;;;;;;;;;10434725;28;19921;-79
2022/11/13 01:45:29;;;;;;;;;;;;;;;;;;10407684;28;19921;-81
2022/11/13 01:50:47;;;;;;;;;;;;;;;;;;10386027;28;20393;-80
2022/11/13 01:56:06;;;;;;;;;;;;;;;;;;10374277;28;19918;-80
2022/11/13 02:01:25;;;;;;;;;;;;;;;;;;10370428;28;19925;-80
2022/11/13 02:06:44;;;;;;;;;;;;;;;;;;10400241;28;19921;-79
2022/11/13 02:12:03;;;;;;;;;;;;;;;;;;10372199;28;20399;-78
2022/11/13 02:17:22;;;;;;;;;;;;;;;;;;10383603;28;19921;-77
2022/11/13 02:22:41;;;;;;;;;;;;;;;;;;10382568;28;20321;-79
2022/11/13 02:28:00;;;;;;;;;;;;;;;;;;10386764;28;20303;-81
2022/11/13 02:33:20;;;;;;;;;;;;;;;;;;10392434;28;20288;-80
2022/11/13 02:38:39;;;;;;;;;;;;;;;;;;10385053;28;20004;-79
2022/11/13 02:43:58;;;;;;;;;;;;;;;;;;10389207;28;19922;-79
2022/11/13 02:49:17;;;;;;;;;;;;;;;;;;10364370;28;19933;-78
2022/11/13 02:54:36;;;;;;;;;;;;;;;;;;10387379;28;20365;-79
2022/11/13 02:59:55;;;;;;;;;;;;;;;;;;10401478;28;19925;-79
2022/11/13 03:05:14;;;;;;;;;;;;;;;;;;10385186;28;19921;-79
2022/11/13 03:10:33;;;;;;;;;;;;;;;;;;10372082;28;19925;-78
2022/11/13 03:15:52;;;;;;;;;;;;;;;;;;10380966;28;19918;-79
2022/11/13 03:21:11;;;;;;;;;;;;;;;;;;10369714;28;19922;-79
2022/11/13 03:26:30;;;;;;;;;;;;;;;;;;10379518;28;20317;-79
2022/11/13 03:31:49;;;;;;;;;;;;;;;;;;10375423;28;20273;-78
2022/11/13 03:37:08;;;;;;;;;;;;;;;;;;10387614;28;20359;-78
2022/11/13 03:42:26;;;;;;;;;;;;;;;;;;10382904;28;20291;-79
2022/11/13 03:47:45;;;;;;;;;;;;;;;;;;10375402;28;19937;-77
2022/11/13 03:53:04;;;;;;;;;;;;;;;;;;10365933;28;19921;-79
2022/11/13 03:58:23;;;;;;;;;;;;;;;;;;10384281;28;19921;-79
2022/11/13 04:03:42;;;;;;;;;;;;;;;;;;10391673;28;20402;-78
2022/11/13 04:09:01;;;;;;;;;;;;;;;;;;10393772;28;19974;-79
2022/11/13 04:14:20;;;;;;;;;;;;;;;;;;10386709;28;19922;-78
2022/11/13 04:19:39;;;;;;;;;;;;;;;;;;10403159;28;20500;-78
2022/11/13 04:24:58;;;;;;;;;;;;;;;;;;10399585;28;19917;-80
2022/11/13 04:30:17;;;;;;;;;;;;;;;;;;10391562;28;19933;-80
2022/11/13 04:35:36;;;;;;;;;;;;;;;;;;10396529;28;20412;-79
2022/11/13 04:42:47;;;;;;;;;;;;;;;;;;10392275;28;19928;-79
2022/11/13 04:46:33;;;;;;;;;;;;;;;;;;10385773;28;20294;-80
2022/11/13 04:51:52;;;;;;;;;;;;;;;;;;10370474;28;19929;-81
2022/11/13 04:57:11;;;;;;;;;;;;;;;;;;10386837;28;19933;-79
2022/11/13 05:02:30;;;;;;;;;;;;;;;;;;10390952;28;19921;-79
2022/11/13 05:07:49;;;;;;;;;;;;;;;;;;10392161;28;19925;-78
2022/11/13 05:13:08;;;;;;;;;;;;;;;;;;10379213;28;19922;-79
2022/11/13 05:18:27;;;;;;;;;;;;;;;;;;10383812;28;19940;-79
2022/11/13 05:23:46;;;;;;;;;;;;;;;;;;10393876;28;20660;-80
2022/11/13 05:29:05;;;;;;;;;;;;;;;;;;10390243;28;19934;-80
2022/11/13 05:34:24;;;;;;;;;;;;;;;;;;10381650;28;19922;-80
2022/11/13 05:39:43;;;;;;;;;;;;;;;;;;10369903;28;19969;-79
2022/11/13 05:45:02;;;;;;;;;;;;;;;;;;10386118;28;19921;-79
2022/11/13 05:50:21;;;;;;;;;;;;;;;;;;10386440;28;19930;-80
2022/11/13 05:55:40;;;;;;;;;;;;;;;;;;10374909;28;20381;-79
2022/11/13 06:00:59;;;;;;;;;;;;;;;;;;10385325;28;19925;-83
2022/11/13 06:06:18;;;;;;;;;;;;;;;;;;10388210;28;19918;-82
2022/11/13 06:11:37;;;;;;;;;;;;;;;;;;10392496;28;19926;-80
2022/11/13 06:16:56;;;;;;;;;;;;;;;;;;10386741;28;19921;-80
2022/11/13 06:22:15;;;;;;;;;;;;;;;;;;10393329;28;19925;-81
2022/11/13 06:27:34;;;;;;;;;;;;;;;;;;10393790;28;19926;-79
2022/11/13 06:32:53;;;;;;;;;;;;;;;;;;10401435;28;20324;-79
2022/11/13 06:38:11;;;;;;;;;;;;;;;;;;10393917;28;19926;-78
2022/11/13 06:43:30;;;;;;;;;;;;;;;;;;10388554;28;19921;-79
2022/11/13 06:48:49;;;;;;;;;;;;;;;;;;10385918;28;19925;-80
2022/11/13 06:54:08;;;;;;;;;;;;;;;;;;10369868;28;19944;-78
2022/11/13 06:59:27;;;;;;;;;;;;;;;;;;10371298;28;19917;-79
2022/11/13 07:04:46;;;;;;;;;;;;;;;;;;10380807;28;19921;-79
2022/11/13 07:10:05;;;;;;;;;;;;;;;;;;10391457;28;19933;-78
2022/11/13 07:15:24;;;;;;;;;;;;;;;;;;10384749;28;19984;-78
2022/11/13 07:20:43;;;;;;;;;;;;;;;;;;10394224;28;20274;-80
2022/11/13 07:26:02;;;;;;;;;;;;;;;;;;10399470;28;19922;-80
2022/11/13 07:31:21;;;;;;;;;;;;;;;;;;10400439;28;20308;-81
2022/11/13 07:36:40;;;;;;;;;;;;;;;;;;10402771;28;19925;-78
2022/11/13 07:41:59;;;;;;;;;;;;;;;;;;10411189;28;19960;-77
2022/11/13 07:47:18;;;;;;;;;;;;;;;;;;10405796;28;19925;-77
2022/11/13 07:52:37;;;;;;;;;;;;;;;;;;10411311;28;19956;-80
2022/11/13 07:57:56;;;;;;;;;;;;;;;;;;10401370;28;20377;-78
2022/11/13 08:03:15;;;;;;;;;;;;;;;;;;10405187;28;20407;-78
2022/11/13 08:08:34;;;;;;;;;;;;;;;;;;10400140;28;19933;-78
2022/11/13 08:13:53;;;;;;;;;;;;;;;;;;10389416;28;20250;-79
2022/11/13 08:19:12;;;;;;;;;;;;;;;;;;10396108;28;19921;-77
2022/11/13 08:24:31;;;;;;;;;;;;;;;;;;10405465;28;19917;-79
2022/11/13 08:29:50;;;;;;;;;;;;;;;;;;10400013;28;19937;-78
2022/11/13 08:35:09;;;;;;;;;;;;;;;;;;10395829;28;19921;-79
2022/11/13 08:40:28;;;;;;;;;;;;;;;;;;10387620;28;19921;-79
2022/11/13 08:45:47;;;;;;;;;;;;;;;;;;10405238;28;20004;-80
2022/11/13 08:51:06;;;;;;;;;;;;;;;;;;10420067;28;20388;-79
2022/11/13 08:56:25;;;;;;;;;;;;;;;;;;10402128;28;19973;-79
2022/11/13 09:01:44;;;;;;;;;;;;;;;;;;10417107;28;19921;-83
2022/11/13 09:07:03;;;;;;;;;;;;;;;;;;10401577;28;19917;-81
2022/11/13 09:12:22;;;;;;;;;;;;;;;;;;10419098;28;19937;-79
2022/11/13 09:17:41;;;;;;;;;;;;;;;;;;10413179;28;19922;-79
2022/11/13 09:23:00;;;;;;;;;;;;;;;;;;10411279;28;19977;-81
2022/11/13 09:28:19;;;;;;;;;;;;;;;;;;10413715;28;20381;-79
2022/11/13 09:33:38;;;;;;;;;;;;;;;;;;10417570;28;19925;-79
2022/11/13 09:38:59;;;;;;;;;;;;;;;;;;10420808;28;19921;-76
2022/11/13 09:44:18;;;;;;;;;;;;;;;;;;10427216;28;19918;-77
2022/11/13 09:49:37;;;;;;;;;;;;;;;;;;10432353;28;19929;-81
2022/11/13 09:54:56;;;;;;;;;;;;;;;;;;10417244;28;19921;-83
2022/11/13 10:00:17;;;;;;;;;;;;;;;;;;10398043;28;19921;-81
2022/11/13 10:05:36;;;;;;;;;;;;;;;;;;10401138;28;19921;-81
2022/11/13 10:10:55;;;;;;;;;;;;;;;;;;10388069;28;19925;-80
2022/11/13 10:16:14;;;;;;;;;;;;;;;;;;10392676;28;20075;-82
2022/11/13 10:21:33;;;;;;;;;;;;;;;;;;10386263;28;19968;-81
2022/11/13 10:26:52;;;;;;;;;;;;;;;;;;10406387;28;19913;-81
2022/11/13 10:32:11;;;;;;;;;;;;;;;;;;10393120;28;19925;-81
2022/11/13 10:37:30;;;;;;;;;;;;;;;;;;10403503;28;19917;-80
2022/11/13 10:42:49;;;;;;;;;;;;;;;;;;10407709;28;19972;-83
2022/11/13 10:48:08;;;;;;;;;;;;;;;;;;10408376;28;19933;-85
2022/11/13 10:53:29;;;;;;;;;;;;;;;;;;10412275;28;20361;-80
2022/11/13 10:58:50;;;;;;;;;;;;;;;;;;10408107;28;19917;-82
2022/11/13 11:04:09;;;;;;;;;;;;;;;;;;10405627;28;20332;-82
2022/11/13 11:09:29;;;;;;;;;;;;;;;;;;10402485;28;19935;-81
2022/11/13 11:14:49;;;;;;;;;;;;;;;;;;10409595;28;19956;-83
2022/11/13 11:20:08;;;;;;;;;;;;;;;;;;10399154;28;19917;-80
2022/11/13 11:25:27;;;;;;;;;;;;;;;;;;10402038;28;19920;-79
2022/11/13 11:30:46;;;;;;;;;;;;;;;;;;10388998;28;19921;-81
2022/11/13 11:36:05;;;;;;;;;;;;;;;;;;10385223;28;19925;-79
2022/11/13 11:41:24;;;;;;;;;;;;;;;;;;10398905;28;19925;-80
2022/11/13 11:46:43;;;;;;;;;;;;;;;;;;10408565;28;19917;-80
2022/11/13 11:52:04;;;;;;;;;;;;;;;;;;10408517;28;20214;-81
2022/11/13 11:57:23;;;;;;;;;;;;;;;;;;10397374;28;20313;-78
2022/11/13 12:02:42;;;;;;;;;;;;;;;;;;10388033;28;19960;-79
2022/11/13 12:08:01;;;;;;;;;;;;;;;;;;10378094;28;19929;-80
2022/11/13 12:13:20;;;;;;;;;;;;;;;;;;10387034;28;19933;-81
2022/11/13 12:18:39;;;;;;;;;;;;;;;;;;10371040;28;20373;-80
2022/11/13 12:23:58;;;;;;;;;;;;;;;;;;10384661;28;19917;-80
2022/11/13 12:29:17;;;;;;;;;;;;;;;;;;10392508;28;19926;-81
2022/11/13 12:34:36;;;;;;;;;;;;;;;;;;10386962;28;19921;-80
2022/11/13 12:39:56;;;;;;;;;;;;;;;;;;10397986;28;20599;-80
2022/11/13 12:45:15;;;;;;;;;;;;;;;;;;10394975;28;19972;-79
2022/11/13 12:50:35;;;;;;;;;;;;;;;;;;10393154;28;19926;-81
2022/11/13 12:55:55;;;;;;;;;;;;;;;;;;10410136;28;19917;-80
2022/11/13 13:01:14;;;;;;;;;;;;;;;;;;10387856;28;20274;-77
2022/11/13 13:06:33;;;;;;;;;;;;;;;;;;10402349;28;20265;-77
2022/11/13 13:11:52;;;;;;;;;;;;;;;;;;10389394;28;19933;-81
2022/11/13 13:17:11;;;;;;;;;;;;;;;;;;10372577;28;19921;-81
2022/11/13 13:22:30;;;;;;;;;;;;;;;;;;10371940;28;19921;-79
2022/11/13 13:27:49;;;;;;;;;;;;;;;;;;10391378;28;19925;-80
2022/11/13 13:33:08;;;;;;;;;;;;;;;;;;10388392;28;19975;-79
2022/11/13 13:38:27;;;;;;;;;;;;;;;;;;10383199;28;19925;-81
2022/11/13 13:43:46;;;;;;;;;;;;;;;;;;10392400;28;19917;-80
2022/11/13 13:49:05;;;;;;;;;;;;;;;;;;10401652;28;19933;-81
2022/11/13 13:54:25;;;;;;;;;;;;;;;;;;10398165;28;19925;-79
2022/11/13 13:59:44;;;;;;;;;;;;;;;;;;10397458;28;19917;-81
2022/11/13 14:05:03;;;;;;;;;;;;;;;;;;10398560;28;19921;-80
2022/11/13 14:10:22;;;;;;;;;;;;;;;;;;10385011;28;20373;-82
2022/11/13 14:15:41;;;;;;;;;;;;;;;;;;10403954;28;20020;-81
2022/11/13 14:21:00;;;;;;;;;;;;;;;;;;10385010;28;20308;-79
2022/11/13 14:26:20;;;;;;;;;;;;;;;;;;10386622;28;19917;-81
2022/11/13 14:31:39;;;;;;;;;;;;;;;;;;10406361;28;19929;-79
2022/11/13 14:36:58;;;;;;;;;;;;;;;;;;10398768;28;19917;-82
2022/11/13 14:42:18;;;;;;;;;;;;;;;;;;10409540;28;19940;-82
2022/11/13 14:47:37;;;;;;;;;;;;;;;;;;10414801;28;19921;-83
2022/11/13 14:52:56;;;;;;;;;;;;;;;;;;10415822;28;19925;-83
2022/11/13 14:58:16;;;;;;;;;;;;;;;;;;10390043;28;19925;-81
2022/11/13 15:03:35;;;;;;;;;;;;;;;;;;10396671;28;19929;-81
2022/11/13 15:08:54;;;;;;;;;;;;;;;;;;10387296;28;19929;-81
2022/11/13 15:14:13;;;;;;;;;;;;;;;;;;10398789;28;19925;-82
2022/11/13 15:19:33;;;;;;;;;;;;;;;;;;10381891;28;19921;-82
2022/11/13 15:24:52;;;;;;;;;;;;;;;;;;10410326;28;19925;-83
2022/11/13 15:30:12;;;;;;;;;;;;;;;;;;10375695;28;19933;-82
2022/11/13 15:35:32;;;;;;;;;;;;;;;;;;10411271;28;19917;-81
2022/11/13 15:40:51;;;;;;;;;;;;;;;;;;10369892;28;19933;-82
2022/11/13 15:46:11;;;;;;;;;;;;;;;;;;10406298;28;20370;-81
2022/11/13 15:51:30;;;;;;;;;;;;;;;;;;10386723;28;19933;-81
2022/11/13 15:56:49;;;;;;;;;;;;;;;;;;10404681;28;19917;-84
2022/11/13 16:02:09;;;;;;;;;;;;;;;;;;10379869;28;20031;-82
2022/11/13 16:07:28;;;;;;;;;;;;;;;;;;10403220;28;19968;-80
2022/11/13 16:12:48;;;;;;;;;;;;;;;;;;10409362;28;20008;-82
2022/11/13 16:18:07;;;;;;;;;;;;;;;;;;10425993;28;19925;-81
2022/11/13 16:23:26;;;;;;;;;;;;;;;;;;10435936;28;19922;-83
2022/11/13 16:28:45;;;;;;;;;;;;;;;;;;10435806;28;19929;-83
2022/11/13 16:34:04;;;;;;;;;;;;;;;;;;10441580;28;19921;-81
2022/11/13 16:39:23;;;;;;;;;;;;;;;;;;10415391;28;19936;-82
2022/11/13 16:44:42;;;;;;;;;;;;;;;;;;10405924;28;19953;-83
2022/11/13 16:50:01;;;;;;;;;;;;;;;;;;10376501;28;20316;-80
2022/11/13 16:55:20;;;;;;;;;;;;;;;;;;10372457;28;19921;-80
2022/11/13 17:00:39;;;;;;;;;;;;;;;;;;10381474;28;20370;-79
2022/11/13 17:05:58;;;;;;;;;;;;;;;;;;10383000;28;20177;-81
2022/11/13 17:11:16;;;;;;;;;;;;;;;;;;10389813;28;20362;-79
2022/11/13 17:16:36;;;;;;;;;;;;;;;;;;10399550;28;20575;-78
2022/11/13 17:21:55;;;;;;;;;;;;;;;;;;10436488;22;20005;-82
2022/11/13 17:27:14;;;;;;;;;;;;;;;;;;10381813;28;19918;-85
2022/11/13 17:32:33;;;;;;;;;;;;;;;;;;10349634;28;20064;-79
2022/11/13 17:37:52;;;;;;;;;;;;;;;;;;10352212;28;20277;-82
2022/11/13 17:43:11;;;;;;;;;;;;;;;;;;10350523;28;20632;-81
2022/11/13 17:48:29;;;;;;;;;;;;;;;;;;10355941;28;19929;-80
2022/11/13 17:53:49;;;;;;;;;;;;;;;;;;10349860;28;20343;-81
2022/11/13 17:59:09;;;;;;;;;;;;;;;;;;10353505;28;19929;-80
2022/11/13 18:04:28;;;;;;;;;;;;;;;;;;10365961;28;19926;-80
2022/11/13 18:09:47;;;;;;;;;;;;;;;;;;10333779;28;19929;-83
2022/11/13 18:15:06;;;;;;;;;;;;;;;;;;10331892;28;20231;-83
2022/11/13 18:20:26;;;;;;;;;;;;;;;;;;10330239;28;19925;-83
2022/11/13 18:25:46;;;;;;;;;;;;;;;;;;10329865;28;20046;-82
2022/11/13 18:31:05;;;;;;;;;;;;;;;;;;10327481;28;19953;-84
2022/11/13 18:36:24;;;;;;;;;;;;;;;;;;10335216;28;19922;-82
2022/11/13 18:41:44;;;;;;;;;;;;;;;;;;10324661;28;20358;-83
2022/11/13 18:47:03;;;;;;;;;;;;;;;;;;10317941;28;19905;-83
2022/11/13 18:52:22;;;;;;;;;;;;;;;;;;10357795;28;19913;-81
2022/11/13 18:57:41;;;;;;;;;;;;;;;;;;10370314;28;19906;-81
2022/11/13 19:03:02;;;;;;;;;;;;;;;;;;10372463;28;19962;-82
2022/11/13 19:08:22;;;;;;;;;;;;;;;;;;10377764;28;19941;-85
2022/11/13 19:13:41;;;;;;;;;;;;;;;;;;10371731;28;19985;-83
2022/11/13 19:19:02;;;;;;;;;;;;;;;;;;10366548;28;19922;-85
2022/11/13 19:24:21;;;;;;;;;;;;;;;;;;10353884;28;19922;-85
2022/11/13 19:29:41;;;;;;;;;;;;;;;;;;10335188;28;20452;-83
2022/11/13 19:35:06;;;;;;;;;;;;;;;;;;10374083;28;19922;-85
2022/11/13 19:40:25;;;;;;;;;;;;;;;;;;10381371;28;19906;-85
2022/11/13 19:45:45;;;;;;;;;;;;;;;;;;10368514;28;19922;-86
2022/11/13 19:51:04;;;;;;;;;;;;;;;;;;10341295;28;19933;-85
2022/11/13 19:56:22;;;;;;;;;;;;;;;;;;10346092;28;19917;-83
2022/11/13 20:01:41;;;;;;;;;;;;;;;;;;10353300;28;19941;-84
2022/11/13 20:07:00;;;;;;;;;;;;;;;;;;10353547;28;19922;-85
2022/11/13 20:12:19;;;;;;;;;;;;;;;;;;10363726;28;19997;-85
2022/11/13 20:17:38;;;;;;;;;;;;;;;;;;10348966;28;20323;-85
2022/11/13 20:22:58;;;;;;;;;;;;;;;;;;10338647;28;19998;-84
2022/11/13 20:28:20;;;;;;;;;;;;;;;;;;10317084;28;19926;-86
2022/11/13 20:33:39;;;;;;;;;;;;;;;;;;10331616;28;20301;-82
2022/11/13 20:38:58;;;;;;;;;;;;;;;;;;10332355;28;19918;-81
2022/11/13 20:44:17;;;;;;;;;;;;;;;;;;10329192;28;19930;-82
2022/11/13 20:49:37;;;;;;;;;;;;;;;;;;10328663;28;19929;-83
2022/11/13 20:54:56;;;;;;;;;;;;;;;;;;10329103;28;20402;-81
2022/11/13 21:00:15;;;;;;;;;;;;;;;;;;10336225;28;19965;-82
2022/11/13 21:05:34;;;;;;;;;;;;;;;;;;10317901;28;19918;-84
2022/11/13 21:10:53;;;;;;;;;;;;;;;;;;10336085;28;19929;-81
2022/11/13 21:16:12;;;;;;;;;;;;;;;;;;10335704;28;19922;-81
2022/11/13 21:21:31;;;;;;;;;;;;;;;;;;10332777;28;19921;-82
2022/11/13 21:26:50;;;;;;;;;;;;;;;;;;10334796;28;19922;-82
2022/11/13 21:32:09;;;;;;;;;;;;;;;;;;10330693;28;19926;-81
2022/11/13 21:37:29;;;;;;;;;;;;;;;;;;10331471;28;19926;-84
2022/11/13 21:42:48;;;;;;;;;;;;;;;;;;10320706;28;19918;-82
2022/11/13 21:48:07;;;;;;;;;;;;;;;;;;10352501;28;19929;-82
2022/11/13 21:53:27;;;;;;;;;;;;;;;;;;10364098;28;19925;-80
2022/11/13 21:58:46;;;;;;;;;;;;;;;;;;10336269;28;19921;-79
2022/11/13 22:04:05;;;;;;;;;;;;;;;;;;10330072;28;19918;-80
2022/11/13 22:09:24;;;;;;;;;;;;;;;;;;10372885;28;19913;-79
2022/11/13 22:14:44;;;;;;;;;;;;;;;;;;10372994;28;19957;-81
2022/11/13 22:20:03;;;;;;;;;;;;;;;;;;10345603;28;19922;-81
2022/11/13 22:25:21;;;;;;;;;;;;;;;;;;10314313;28;19921;-81
2022/11/13 22:30:40;;;;;;;;;;;;;;;;;;10327406;28;19929;-81
2022/11/13 22:35:59;;;;;;;;;;;;;;;;;;10326519;28;19978;-80
2022/11/13 22:41:18;;;;;;;;;;;;;;;;;;10312716;28;19921;-80
2022/11/13 22:46:37;;;;;;;;;;;;;;;;;;10319084;28;19925;-82
2022/11/13 22:51:56;;;;;;;;;;;;;;;;;;10313451;28;20290;-82
2022/11/13 22:57:15;;;;;;;;;;;;;;;;;;10327735;28;19925;-82
2022/11/13 23:02:34;;;;;;;;;;;;;;;;;;10326905;28;19917;-82
2022/11/13 23:07:53;;;;;;;;;;;;;;;;;;10326594;28;19985;-81
2022/11/13 23:13:12;;;;;;;;;;;;;;;;;;10309318;28;19921;-80
2022/11/13 23:18:31;;;;;;;;;;;;;;;;;;10313359;28;19922;-80
2022/11/13 23:23:50;;;;;;;;;;;;;;;;;;10344223;28;19921;-79
2022/11/13 23:29:09;;;;;;;;;;;;;;;;;;10334037;28;19965;-80
2022/11/13 23:34:28;;;;;;;;;;;;;;;;;;10314570;28;19922;-78
2022/11/13 23:39:47;;;;;;;;;;;;;;;;;;10363474;28;19922;-80
2022/11/13 23:45:06;;;;;;;;;;;;;;;;;;10364313;28;20017;-79
2022/11/13 23:50:25;;;;;;;;;;;;;;;;;;10388807;28;19930;-80
2022/11/13 23:55:45;;;;;;;;;;;;;;;;;;10370157;28;19925;-80
